createdAt,value
2018-01-11T00:00:54.540Z,95.19
2018-01-11T00:03:22.309Z,95.12
2018-01-11T00:05:50.083Z,95.28
2018-01-11T00:08:17.795Z,95.87
2018-01-11T00:10:45.520Z,96.23
2018-01-11T00:13:13.250Z,96.32
2018-01-11T00:15:40.932Z,96.06
2018-01-11T00:18:08.647Z,95.64
2018-01-11T00:20:36.368Z,95.34
2018-01-11T00:23:04.113Z,94.91
2018-01-11T00:25:31.846Z,94.75
2018-01-11T00:27:59.559Z,94.79
2018-01-11T00:30:27.294Z,95.21
2018-01-11T00:32:55.030Z,95.27
2018-01-11T00:35:22.714Z,95.18
2018-01-11T00:37:50.795Z,95.07
2018-01-11T00:40:18.515Z,95.06
2018-01-11T00:42:46.243Z,94.99
2018-01-11T00:45:13.997Z,94.90
2018-01-11T00:47:41.672Z,94.82
2018-01-11T00:50:09.422Z,94.98
2018-01-11T00:52:37.185Z,94.83
2018-01-11T00:55:04.855Z,94.64
2018-01-11T00:57:32.626Z,94.48
2018-01-11T01:00:00.366Z,94.71
2018-01-11T01:02:28.255Z,94.72
2018-01-11T01:04:55.934Z,95.00
2018-01-11T01:07:23.736Z,95.35
2018-01-11T01:09:51.460Z,95.13
2018-01-11T01:12:19.193Z,94.89
2018-01-11T01:14:46.905Z,94.72
2018-01-11T01:17:14.737Z,94.57
2018-01-11T01:19:42.498Z,94.69
2018-01-11T01:22:10.186Z,94.88
2018-01-11T01:24:37.925Z,94.86
2018-01-11T01:27:05.601Z,94.88
2018-01-11T01:29:33.697Z,94.93
2018-01-11T01:32:01.442Z,94.86
2018-01-11T01:34:29.136Z,95.11
2018-01-11T01:36:56.862Z,94.83
2018-01-11T01:39:24.571Z,94.92
2018-01-11T01:41:52.281Z,94.84
2018-01-11T01:44:20.083Z,94.97
2018-01-11T01:46:47.837Z,94.84
2018-01-11T01:49:15.576Z,94.67
2018-01-11T01:51:43.314Z,94.66
2018-01-11T01:54:11.021Z,95.04
2018-01-11T01:56:38.779Z,94.98
2018-01-11T01:59:06.443Z,94.76
2018-01-11T02:01:34.177Z,94.54
2018-01-11T02:04:01.925Z,94.38
2018-01-11T02:06:30.657Z,94.39
2018-01-11T02:08:58.870Z,94.18
2018-01-11T02:11:26.619Z,93.91
2018-01-11T02:13:54.407Z,94.17
2018-01-11T02:16:22.119Z,94.18
2018-01-11T02:18:49.858Z,93.97
2018-01-11T02:21:17.546Z,94.19
2018-01-11T02:23:45.309Z,94.26
2018-01-11T02:26:13.041Z,94.34
2018-01-11T02:28:40.792Z,94.32
2018-01-11T02:31:09.261Z,94.05
2018-01-11T02:33:38.673Z,94.18
2018-01-11T02:36:06.425Z,94.49
2018-01-11T02:38:34.157Z,94.60
2018-01-11T02:41:01.879Z,94.75
2018-01-11T02:43:29.597Z,94.57
2018-01-11T02:45:57.357Z,94.28
2018-01-11T02:48:25.089Z,94.06
2018-01-11T02:50:52.833Z,94.08
2018-01-11T02:53:20.575Z,94.22
2018-01-11T02:55:48.384Z,94.46
2018-01-11T02:58:16.060Z,94.81
2018-01-11T03:00:43.742Z,94.62
2018-01-11T03:03:12.374Z,94.71
2018-01-11T03:05:40.810Z,94.58
2018-01-11T03:08:08.488Z,94.64
2018-01-11T03:10:36.228Z,94.76
2018-01-11T03:13:03.929Z,94.61
2018-01-11T03:15:31.652Z,94.85
2018-01-11T03:17:59.412Z,95.21
2018-01-11T03:20:27.189Z,95.19
2018-01-11T03:22:54.869Z,95.27
2018-01-11T03:25:22.660Z,95.47
2018-01-11T03:27:50.334Z,95.74
2018-01-11T03:30:18.086Z,95.49
2018-01-11T03:32:45.785Z,95.51
2018-01-11T03:35:13.509Z,95.24
2018-01-11T03:37:41.625Z,95.23
2018-01-11T03:40:09.408Z,95.53
2018-01-11T03:42:37.123Z,95.52
2018-01-11T03:45:04.891Z,95.38
2018-01-11T03:47:32.594Z,95.42
2018-01-11T03:50:00.313Z,95.62
2018-01-11T03:52:28.031Z,96.00
2018-01-11T03:54:55.734Z,95.72
2018-01-11T03:57:23.460Z,95.49
2018-01-11T03:59:51.157Z,95.45
2018-01-11T04:02:19.813Z,95.55
2018-01-11T04:04:47.539Z,95.59
2018-01-11T04:07:15.280Z,95.74
2018-01-11T04:09:43.036Z,95.71
2018-01-11T04:12:10.726Z,95.42
2018-01-11T04:14:38.454Z,95.13
2018-01-11T04:17:06.154Z,94.82
2018-01-11T04:19:33.910Z,94.79
2018-01-11T04:22:02.426Z,94.87
2018-01-11T04:24:30.161Z,94.84
2018-01-11T04:26:57.878Z,94.99
2018-01-11T04:29:25.631Z,95.02
2018-01-11T04:31:53.330Z,94.96
2018-01-11T04:34:21.272Z,94.87
2018-01-11T04:36:49.414Z,94.54
2018-01-11T04:39:17.232Z,94.42
2018-01-11T04:41:45.023Z,94.13
2018-01-11T04:44:12.703Z,93.89
2018-01-11T04:46:40.408Z,93.83
2018-01-11T04:49:08.168Z,94.14
2018-01-11T04:51:35.837Z,94.27
2018-01-11T04:54:03.550Z,94.31
2018-01-11T04:56:31.317Z,94.36
2018-01-11T04:58:59.004Z,94.21
2018-01-11T05:01:26.860Z,94.43
2018-01-11T05:03:54.544Z,94.68
2018-01-11T05:06:22.391Z,94.77
2018-01-11T05:08:50.082Z,94.88
2018-01-11T05:11:17.816Z,94.89
2018-01-11T05:13:45.495Z,94.37
2018-01-11T05:16:13.183Z,94.32
2018-01-11T05:18:40.939Z,94.64
2018-01-11T05:21:08.983Z,94.93
2018-01-11T05:23:36.670Z,94.53
2018-01-11T05:26:04.404Z,94.20
2018-01-11T05:28:32.241Z,94.25
2018-01-11T05:30:59.920Z,94.41
2018-01-11T05:33:27.618Z,94.22
2018-01-11T05:35:55.380Z,94.00
2018-01-11T05:38:23.112Z,94.22
2018-01-11T05:40:50.814Z,94.31
2018-01-11T05:43:18.522Z,94.04
2018-01-11T05:45:46.265Z,93.56
2018-01-11T05:48:13.992Z,93.23
2018-01-11T05:50:41.742Z,93.81
2018-01-11T05:53:09.476Z,94.11
2018-01-11T05:55:37.216Z,94.12
2018-01-11T05:58:04.893Z,93.83
2018-01-11T06:00:32.634Z,93.67
2018-01-11T06:03:00.403Z,93.44
2018-01-11T06:05:28.155Z,93.57
2018-01-11T06:07:55.943Z,93.60
2018-01-11T06:10:23.671Z,93.81
2018-01-11T06:12:51.429Z,93.94
2018-01-11T06:15:19.153Z,93.79
2018-01-11T06:17:46.943Z,93.76
2018-01-11T06:20:14.637Z,93.42
2018-01-11T06:22:42.378Z,93.49
2018-01-11T06:25:10.146Z,93.49
2018-01-11T06:27:38.125Z,93.62
2018-01-11T06:30:05.951Z,93.92
2018-01-11T06:32:33.685Z,93.89
2018-01-11T06:35:01.428Z,93.73
2018-01-11T06:37:29.206Z,93.36
2018-01-11T06:39:56.884Z,93.22
2018-01-11T06:42:24.616Z,93.21
2018-01-11T06:44:52.339Z,93.32
2018-01-11T06:47:20.146Z,93.24
2018-01-11T06:49:47.815Z,93.65
2018-01-11T06:52:15.555Z,93.66
2018-01-11T06:54:43.235Z,93.46
2018-01-11T06:57:10.914Z,93.73
2018-01-11T06:59:38.691Z,94.03
2018-01-11T07:02:06.432Z,94.37
2018-01-11T07:04:34.297Z,94.42
2018-01-11T07:07:02.026Z,94.61
2018-01-11T07:09:29.792Z,94.52
2018-01-11T07:11:57.734Z,94.41
2018-01-11T07:14:25.426Z,94.44
2018-01-11T07:16:53.202Z,94.30
2018-01-11T07:19:20.935Z,94.38
2018-01-11T07:21:48.654Z,94.25
2018-01-11T07:24:16.401Z,94.12
2018-01-11T07:26:44.208Z,94.13
2018-01-11T07:29:11.898Z,93.79
2018-01-11T07:31:39.689Z,93.79
2018-01-11T07:34:07.428Z,94.06
2018-01-11T07:36:35.123Z,94.15
2018-01-11T07:39:02.881Z,94.25
2018-01-11T07:41:30.632Z,94.18
2018-01-11T07:43:58.394Z,93.66
2018-01-11T07:46:26.080Z,93.45
2018-01-11T07:48:53.855Z,93.34
2018-01-11T07:51:21.679Z,93.26
2018-01-11T07:53:49.440Z,92.91
2018-01-11T07:56:17.250Z,93.18
2018-01-11T07:58:45.007Z,93.16
2018-01-11T08:01:12.827Z,93.43
2018-01-11T08:03:40.567Z,93.88
2018-01-11T08:06:08.468Z,93.63
2018-01-11T08:08:36.194Z,93.76
2018-01-11T08:11:03.997Z,93.67
2018-01-11T08:13:31.843Z,93.35
2018-01-11T08:15:59.508Z,93.58
2018-01-11T08:18:27.323Z,93.85
2018-01-11T08:20:55.007Z,93.70
2018-01-11T08:23:22.819Z,93.86
2018-01-11T08:25:50.632Z,93.70
2018-01-11T08:28:18.323Z,93.56
2018-01-11T08:30:46.071Z,93.35
2018-01-11T08:33:13.788Z,92.80
2018-01-11T08:35:41.514Z,92.44
2018-01-11T08:38:09.294Z,92.58
2018-01-11T08:40:37.051Z,92.18
2018-01-11T08:43:04.779Z,94.14
2018-01-11T08:45:32.455Z,93.32
2018-01-11T08:48:00.237Z,92.87
2018-01-11T08:50:27.965Z,92.48
2018-01-11T08:52:55.790Z,92.04
2018-01-11T08:55:23.571Z,92.07
2018-01-11T08:57:51.288Z,92.64
2018-01-11T09:00:18.979Z,92.81
2018-01-11T09:02:47.634Z,92.56
2018-01-11T09:05:15.316Z,92.56
2018-01-11T09:07:42.979Z,92.25
2018-01-11T09:10:10.703Z,92.48
2018-01-11T09:12:38.540Z,92.21
2018-01-11T09:15:06.199Z,92.63
2018-01-11T09:17:33.846Z,92.56
2018-01-11T09:20:02.116Z,92.14
2018-01-11T09:22:29.934Z,91.91
2018-01-11T09:24:57.624Z,91.90
2018-01-11T09:27:25.416Z,91.72
2018-01-11T09:29:53.091Z,91.99
2018-01-11T09:32:20.840Z,91.87
2018-01-11T09:34:48.562Z,92.13
2018-01-11T09:37:16.308Z,91.89
2018-01-11T09:39:44.004Z,91.92
2018-01-11T09:42:11.731Z,91.57
2018-01-11T09:44:39.472Z,91.68
2018-01-11T09:47:07.165Z,91.49
2018-01-11T09:49:34.888Z,91.67
2018-01-11T09:52:02.692Z,91.54
2018-01-11T09:54:30.392Z,91.07
2018-01-11T09:56:58.138Z,90.99
2018-01-11T09:59:25.826Z,90.82
2018-01-11T10:01:53.619Z,90.58
2018-01-11T10:04:21.318Z,90.95
2018-01-11T10:06:49.067Z,90.23
2018-01-11T10:09:16.855Z,90.32
2018-01-11T10:11:44.558Z,91.01
2018-01-11T10:14:12.236Z,90.97
2018-01-11T10:16:39.982Z,91.11
2018-01-11T10:19:07.794Z,91.33
2018-01-11T10:21:35.540Z,91.13
2018-01-11T10:24:03.302Z,90.63
2018-01-11T10:26:31.111Z,91.19
2018-01-11T10:28:58.918Z,90.67
2018-01-11T10:31:26.737Z,90.93
2018-01-11T10:33:54.494Z,90.97
2018-01-11T10:36:22.196Z,90.36
2018-01-11T10:38:50.942Z,89.72
2018-01-11T10:41:18.623Z,90.59
2018-01-11T10:43:46.379Z,90.77
2018-01-11T10:46:14.098Z,90.46
2018-01-11T10:48:41.898Z,89.97
2018-01-11T10:51:09.631Z,89.88
2018-01-11T10:53:37.354Z,89.94
2018-01-11T10:56:05.060Z,90.40
2018-01-11T10:58:32.789Z,88.82
2018-01-11T11:01:06.086Z,89.44
2018-01-11T11:03:33.885Z,88.80
2018-01-11T11:06:02.903Z,89.23
2018-01-11T11:08:30.763Z,89.15
2018-01-11T11:10:58.445Z,89.15
2018-01-11T11:13:26.205Z,89.33
2018-01-11T11:15:53.908Z,89.36
2018-01-11T11:18:21.695Z,88.83
2018-01-11T11:20:49.442Z,88.64
2018-01-11T11:23:17.191Z,87.50
2018-01-11T11:25:44.890Z,87.45
2018-01-11T11:28:12.656Z,87.26
2018-01-11T11:30:40.328Z,87.04
2018-01-11T11:33:08.111Z,87.02
2018-01-11T11:35:35.813Z,86.77
2018-01-11T11:38:04.015Z,87.01
2018-01-11T11:40:31.755Z,86.56
2018-01-11T11:42:59.509Z,86.65
2018-01-11T11:45:27.214Z,86.07
2018-01-11T11:47:55.028Z,85.54
2018-01-11T11:50:22.805Z,84.58
2018-01-11T11:52:50.528Z,85.43
2018-01-11T11:55:18.235Z,85.67
2018-01-11T11:57:46.067Z,86.68
2018-01-11T12:00:13.902Z,86.01
2018-01-11T12:02:41.694Z,86.47
2018-01-11T12:05:09.394Z,86.51
2018-01-11T12:07:37.240Z,86.37
2018-01-11T12:10:05.223Z,85.68
2018-01-11T12:12:32.997Z,85.41
2018-01-11T12:15:00.755Z,85.61
2018-01-11T12:17:28.503Z,85.63
2018-01-11T12:19:56.225Z,86.47
2018-01-11T12:22:24.097Z,86.81
2018-01-11T12:24:51.896Z,86.35
2018-01-11T12:27:19.802Z,86.75
2018-01-11T12:29:47.792Z,87.77
2018-01-11T12:32:16.155Z,88.19
2018-01-11T12:34:43.870Z,87.89
2018-01-11T12:37:11.645Z,88.43
2018-01-11T12:39:40.266Z,88.64
2018-01-11T12:42:08.788Z,88.46
2018-01-11T12:44:36.534Z,88.46
2018-01-11T12:47:04.217Z,88.58
2018-01-11T12:49:32.002Z,88.65
2018-01-11T12:52:00.211Z,87.89
2018-01-11T12:54:27.917Z,87.74
2018-01-11T12:56:55.711Z,86.84
2018-01-11T12:59:23.563Z,86.61
2018-01-11T13:01:51.286Z,87.25
2018-01-11T13:04:19.118Z,88.13
2018-01-11T13:06:46.851Z,88.06
2018-01-11T13:09:14.560Z,87.90
2018-01-11T13:11:42.407Z,87.41
2018-01-11T13:14:10.217Z,87.16
2018-01-11T13:16:37.923Z,87.13
2018-01-11T13:19:05.722Z,87.99
2018-01-11T13:21:33.659Z,88.35
2018-01-11T13:24:01.453Z,88.41
2018-01-11T13:26:29.219Z,88.23
2018-01-11T13:28:56.988Z,88.21
2018-01-11T13:31:24.776Z,88.00
2018-01-11T13:33:52.548Z,87.67
2018-01-11T13:36:20.277Z,87.14
2018-01-11T13:38:48.086Z,88.43
2018-01-11T13:41:15.871Z,88.35
2018-01-11T13:43:43.820Z,87.80
2018-01-11T13:46:12.229Z,88.13
2018-01-11T13:48:40.092Z,87.95
2018-01-11T13:51:07.852Z,88.45
2018-01-11T13:53:35.616Z,87.42
2018-01-11T13:56:03.784Z,86.49
2018-01-11T13:58:31.665Z,86.64
2018-01-11T14:00:59.377Z,88.09
2018-01-11T14:03:27.162Z,88.48
2018-01-11T14:05:54.992Z,87.68
2018-01-11T14:08:22.811Z,88.86
2018-01-11T14:10:51.831Z,89.36
2018-01-11T14:13:19.576Z,89.26
2018-01-11T14:15:47.958Z,89.14
2018-01-11T14:18:15.687Z,89.40
2018-01-11T14:20:43.484Z,89.34
2018-01-11T14:23:11.269Z,89.52
2018-01-11T14:25:39.016Z,89.25
2018-01-11T14:28:06.745Z,88.86
2018-01-11T14:30:34.551Z,88.15
2018-01-11T14:33:02.417Z,88.19
2018-01-11T14:35:30.211Z,88.29
2018-01-11T14:37:58.083Z,88.62
2018-01-11T14:40:25.768Z,88.61
2018-01-11T14:42:54.532Z,88.96
2018-01-11T14:45:22.473Z,89.12
2018-01-11T14:47:50.249Z,89.50
2018-01-11T14:50:18.006Z,90.14
2018-01-11T14:52:45.814Z,90.14
2018-01-11T14:55:13.546Z,90.06
2018-01-11T14:57:41.412Z,89.96
2018-01-11T15:00:09.130Z,89.49
2018-01-11T15:02:36.881Z,89.35
2018-01-11T15:05:04.755Z,89.78
2018-01-11T15:07:32.483Z,90.00
2018-01-11T15:10:00.198Z,89.60
2018-01-11T15:12:27.991Z,88.98
2018-01-11T15:14:55.749Z,89.53
2018-01-11T15:17:23.639Z,89.96
2018-01-11T15:19:51.450Z,90.92
2018-01-11T15:22:19.228Z,90.38
2018-01-11T15:24:47.568Z,90.62
2018-01-11T15:27:15.374Z,90.33
2018-01-11T15:29:43.069Z,90.48
2018-01-11T15:32:10.876Z,90.70
2018-01-11T15:34:38.583Z,90.56
2018-01-11T15:37:06.355Z,90.84
2018-01-11T15:39:34.159Z,90.89
2018-01-11T15:42:01.956Z,91.38
2018-01-11T15:44:29.720Z,91.50
2018-01-11T15:46:57.465Z,91.16
2018-01-11T15:49:25.254Z,91.26
2018-01-11T15:51:52.955Z,91.44
2018-01-11T15:54:20.729Z,91.57
2018-01-11T15:56:48.456Z,91.24
2018-01-11T15:59:16.252Z,90.70
2018-01-11T16:01:44.008Z,90.33
2018-01-11T16:04:11.858Z,90.63
2018-01-11T16:06:39.667Z,91.35
2018-01-11T16:09:07.502Z,91.34
2018-01-11T16:11:35.257Z,90.48
2018-01-11T16:14:03.070Z,89.63
2018-01-11T16:16:30.825Z,89.63
2018-01-11T16:18:58.536Z,89.70
2018-01-11T16:21:26.360Z,90.45
2018-01-11T16:23:54.180Z,90.71
2018-01-11T16:26:21.949Z,91.51
2018-01-11T16:28:49.743Z,91.66
2018-01-11T16:31:17.534Z,91.86
2018-01-11T16:33:45.261Z,92.29
2018-01-11T16:36:13.094Z,91.83
2018-01-11T16:38:41.030Z,91.56
2018-01-11T16:41:08.944Z,91.17
2018-01-11T16:43:36.685Z,91.04
2018-01-11T16:46:04.574Z,90.98
2018-01-11T16:48:32.345Z,91.19
2018-01-11T16:51:00.160Z,91.00
2018-01-11T16:53:28.584Z,91.36
2018-01-11T16:55:56.345Z,91.20
2018-01-11T16:58:24.140Z,91.41
2018-01-11T17:00:51.981Z,91.75
2018-01-11T17:03:20.862Z,92.13
2018-01-11T17:05:48.813Z,92.34
2018-01-11T17:08:17.132Z,92.47
2018-01-11T17:10:45.101Z,92.34
2018-01-11T17:13:13.850Z,92.38
2018-01-11T17:15:41.639Z,92.34
2018-01-11T17:18:09.451Z,92.40
2018-01-11T17:20:37.241Z,92.59
2018-01-11T17:23:05.048Z,92.70
2018-01-11T17:25:34.130Z,92.25
2018-01-11T17:28:01.935Z,92.01
2018-01-11T17:30:29.708Z,91.59
2018-01-11T17:32:57.711Z,91.09
2018-01-11T17:35:25.699Z,91.00
2018-01-11T17:37:53.627Z,90.68
2018-01-11T17:40:21.626Z,90.38
2018-01-11T17:42:50.616Z,90.61
2018-01-11T17:45:18.516Z,91.15
2018-01-11T17:47:47.215Z,91.05
2018-01-11T17:50:15.064Z,90.91
2018-01-11T17:52:42.940Z,90.91
2018-01-11T17:55:10.661Z,90.99
2018-01-11T17:57:38.431Z,91.20
2018-01-11T18:00:07.930Z,91.13
2018-01-11T18:02:35.770Z,91.07
2018-01-11T18:05:03.559Z,90.66
2018-01-11T18:07:31.396Z,90.36
2018-01-11T18:09:59.290Z,90.41
2018-01-11T18:12:27.094Z,91.39
2018-01-11T18:14:54.817Z,91.28
2018-01-11T18:17:22.602Z,91.16
2018-01-11T18:19:50.348Z,91.18
2018-01-11T18:22:18.184Z,91.21
2018-01-11T18:24:45.961Z,91.18
2018-01-11T18:27:20.377Z,91.18
2018-01-11T18:29:59.830Z,91.12
2018-01-11T18:32:53.440Z,91.03
2018-01-11T18:35:23.877Z,90.90
2018-01-11T18:37:53.961Z,90.90
2018-01-11T18:47:16.255Z,91.05
2018-01-11T18:49:44.362Z,90.79
2018-01-11T18:52:12.283Z,90.56
2018-01-11T18:54:40.902Z,90.37
2018-01-11T18:57:09.026Z,90.64
2018-01-11T18:59:36.812Z,91.32
2018-01-11T19:02:04.897Z,91.22
2018-01-11T19:04:33.405Z,91.29
2018-01-11T19:07:01.186Z,91.25
2018-01-11T19:09:28.957Z,91.45
2018-01-11T19:11:56.749Z,90.95
2018-01-11T19:14:24.648Z,90.73
2018-01-11T19:16:52.880Z,90.80
2018-01-11T19:19:20.770Z,90.51
2018-01-11T19:21:48.519Z,90.39
2018-01-11T19:24:16.744Z,91.24
2018-01-11T19:26:45.627Z,91.62
2018-01-11T19:29:13.514Z,91.75
2018-01-11T19:31:41.620Z,91.48
2018-01-11T19:34:12.030Z,91.56
2018-01-11T19:36:40.192Z,91.88
2018-01-11T19:39:07.905Z,91.76
2018-01-11T19:41:35.775Z,91.85
2018-01-11T19:44:04.356Z,91.31
2018-01-11T19:46:32.240Z,91.23
2018-01-11T19:49:00.068Z,92.21
2018-01-11T19:51:29.724Z,91.96
2018-01-11T19:53:57.538Z,91.82
2018-01-11T19:56:25.271Z,91.75
2018-01-11T19:58:53.046Z,92.18
2018-01-11T20:01:20.921Z,92.73
2018-01-11T20:03:48.902Z,92.89
2018-01-11T20:06:16.822Z,92.87
2018-01-11T20:08:45.346Z,92.83
2018-01-11T20:11:13.093Z,92.99
2018-01-11T20:13:40.886Z,93.16
2018-01-11T20:16:08.607Z,92.68
2018-01-11T20:18:36.413Z,92.37
2018-01-11T20:21:04.454Z,92.54
2018-01-11T20:23:32.517Z,92.95
2018-01-11T20:26:00.667Z,93.02
2018-01-11T20:28:29.355Z,92.76
2018-01-11T20:30:57.074Z,92.84
2018-01-11T20:33:24.844Z,92.72
2018-01-11T20:35:52.581Z,92.73
2018-01-11T20:38:20.397Z,92.78
2018-01-11T20:40:48.220Z,92.78
2018-01-11T20:43:15.918Z,92.47
2018-01-11T20:45:43.742Z,91.85
2018-01-11T20:48:11.531Z,90.57
2018-01-11T20:50:40.277Z,90.96
2018-01-11T20:53:08.024Z,91.40
2018-01-11T20:55:35.747Z,91.15
2018-01-11T20:58:03.594Z,91.12
2018-01-11T21:00:31.457Z,91.34
2018-01-11T21:02:59.270Z,91.46
2018-01-11T21:05:28.635Z,91.81
2018-01-11T21:07:56.500Z,92.11
2018-01-11T21:10:25.363Z,92.65
2018-01-11T21:12:53.296Z,92.85
2018-01-11T21:15:21.117Z,92.61
2018-01-11T21:17:49.783Z,92.52
2018-01-11T21:20:17.693Z,92.57
2018-01-11T21:22:47.416Z,92.45
2018-01-11T21:25:15.479Z,92.64
2018-01-11T21:27:43.337Z,92.47
2018-01-11T21:30:11.219Z,92.37
2018-01-11T21:32:39.123Z,92.42
2018-01-11T21:35:07.064Z,92.95
2018-01-11T21:37:35.975Z,93.26
2018-01-11T21:40:03.981Z,93.36
2018-01-11T21:42:31.723Z,93.36
2018-01-11T21:44:59.502Z,93.22
2018-01-11T21:47:27.344Z,93.44
2018-01-11T21:49:55.030Z,93.45
2018-01-11T21:52:22.736Z,93.39
2018-01-11T21:54:50.491Z,92.74
2018-01-11T21:57:18.232Z,92.61
2018-01-11T21:59:46.888Z,92.79
2018-01-11T22:02:14.762Z,92.61
2018-01-11T22:04:42.523Z,92.51
2018-01-11T22:07:10.278Z,92.42
2018-01-11T22:09:38.109Z,92.21
2018-01-11T22:12:05.880Z,92.19
2018-01-11T22:14:33.734Z,92.35
2018-01-11T22:17:01.444Z,92.13
2018-01-11T22:19:29.240Z,92.16
2018-01-11T22:21:56.984Z,92.09
2018-01-11T22:24:24.696Z,91.95
2018-01-11T22:26:52.391Z,92.02
2018-01-11T22:29:20.114Z,91.90
2018-01-11T22:31:48.100Z,91.80
2018-01-11T22:34:15.914Z,91.89
2018-01-11T22:36:43.698Z,92.51
2018-01-11T22:39:11.451Z,92.29
2018-01-11T22:41:39.143Z,92.13
2018-01-11T22:44:06.911Z,92.41
2018-01-11T22:46:34.622Z,91.91
2018-01-11T22:49:02.324Z,91.86
2018-01-11T22:51:30.084Z,91.94
2018-01-11T22:53:57.814Z,92.17
2018-01-11T22:56:25.544Z,92.13
2018-01-11T22:58:53.294Z,91.86
2018-01-11T23:01:20.994Z,91.58
2018-01-11T23:03:48.747Z,92.03
2018-01-11T23:06:16.501Z,92.14
2018-01-11T23:08:44.197Z,91.83
2018-01-11T23:14:11.596Z,91.91
2018-01-11T23:16:39.528Z,91.96
2018-01-11T23:19:07.237Z,91.94
2018-01-11T23:21:35.577Z,92.18
2018-01-11T23:24:03.298Z,92.43
2018-01-11T23:26:30.968Z,92.33
2018-01-11T23:28:58.715Z,92.52
2018-01-11T23:31:26.418Z,92.47
2018-01-11T23:33:54.091Z,92.06
2018-01-11T23:36:21.830Z,91.72
2018-01-11T23:38:49.555Z,91.39
2018-01-11T23:41:17.294Z,91.42
2018-01-11T23:43:44.948Z,90.91
2018-01-11T23:46:12.695Z,90.80
2018-01-11T23:48:40.443Z,91.59
2018-01-11T23:51:08.157Z,91.91
2018-01-11T23:53:35.906Z,92.01
2018-01-11T23:56:03.647Z,92.09
2018-01-11T23:58:31.421Z,91.66
